»·PEaware :: TWY250 KLAX-KDFW

TWY250 :: KLAX-KDFW

FLIGHT INFORMATION

Flight Status: Arrived
Operator: Unknown
More flights by this operator :: More flights under this callsign
Pilot: Andrew J. (13363)
Aircraft: Unknown
(LEGA)
More flights by this aircraft type
Origin: KLAX Los Angeles Intl
United States
Destination: KDFW Dallas-Ft Worth Intl
United States
More flights between these airports :: More routes between these airports
Route: DOTSS2 CNERY BLH J169 TFD J50 SSO J4 INK GEEKY BOOVE4
File this flight plan on PilotEdge
Remarks: TWY TWILIGHT
Altitude:
(Current/Filed)
37,000ft
Speed:
(Current/Filed)
426kts
Departed: 28-Oct-19 05:34 PM
Arrived: 28-Oct-19 08:06 PM
Distance/Time
Traveled:
1070nm/2:32
Distance/Time
To Go:
Arrived

Flight Plot

Page will automatically refresh every two minutes.

Flight plan parsing failed; only flown route is shown


Map Options




Map Legend


Flown Route
Filed Route
Departure Airport
Arrival Airport
Navaid (VOR, NDB)
Fix

Horizontal Profiles

Position Reports

Time Latitude Longitude Heading Altitude Ground
Speed
28-Oct-19 16:57 33.933152 -118.398448 263 117ft 0kts
28-Oct-19 16:58 33.933152 -118.398448 263 117ft 0kts
28-Oct-19 16:59 33.933152 -118.398448 263 117ft 0kts
28-Oct-19 17:00 33.933152 -118.398448 263 117ft 0kts
28-Oct-19 17:01 33.933152 -118.398448 263 117ft 0kts
28-Oct-19 17:02 33.933152 -118.398448 263 117ft 0kts
28-Oct-19 17:03 33.933152 -118.398448 263 117ft 0kts
28-Oct-19 17:04 33.933152 -118.398448 263 117ft 0kts
28-Oct-19 17:05 33.933152 -118.398449 263 117ft 0kts
28-Oct-19 17:06 33.933152 -118.398449 263 117ft 0kts
28-Oct-19 17:07 33.933152 -118.398449 263 117ft 0kts
28-Oct-19 17:08 33.933152 -118.398449 263 117ft 0kts
28-Oct-19 17:09 33.933152 -118.398449 263 117ft 0kts
28-Oct-19 17:10 33.933152 -118.398449 263 117ft 0kts
28-Oct-19 17:11 33.933152 -118.398449 263 117ft 0kts
28-Oct-19 17:12 33.933152 -118.398449 263 117ft 0kts
28-Oct-19 17:13 33.933152 -118.398449 263 117ft 0kts
28-Oct-19 17:14 33.933152 -118.398449 263 117ft 0kts
28-Oct-19 17:15 33.933152 -118.398449 263 117ft 0kts
28-Oct-19 17:16 33.933152 -118.398449 263 117ft 0kts
28-Oct-19 17:17 33.933152 -118.398449 263 117ft 0kts
28-Oct-19 17:18 33.933152 -118.398449 263 117ft 0kts
28-Oct-19 17:19 33.933152 -118.398449 263 117ft 0kts
28-Oct-19 17:20 33.933152 -118.398449 263 117ft 0kts
28-Oct-19 17:21 33.933152 -118.398449 263 117ft 0kts
28-Oct-19 17:22 33.933152 -118.398449 263 117ft 0kts
28-Oct-19 17:23 33.933152 -118.398449 263 117ft 0kts
28-Oct-19 17:24 33.933152 -118.398449 263 117ft 0kts
28-Oct-19 17:25 33.933152 -118.398449 263 117ft 0kts
28-Oct-19 17:26 33.933456 -118.398764 54 117ft 6kts
28-Oct-19 17:27 33.933724 -118.398199 28 116ft 1kts
28-Oct-19 17:28 33.934702 -118.396693 83 114ft 14kts
28-Oct-19 17:29 33.935448 -118.389393 82 107ft 25kts
28-Oct-19 17:30 33.936102 -118.383186 74 103ft 12kts
28-Oct-19 17:31 33.936395 -118.382814 25 103ft 0kts
28-Oct-19 17:32 33.937328 -118.383097 263 103ft 5kts
28-Oct-19 17:34 33.932512 -118.422583 258 1748ft 167kts
28-Oct-19 17:35 33.910937 -118.486006 234 4883ft 232kts
28-Oct-19 17:36 33.870441 -118.547202 232 4994ft 234kts
28-Oct-19 17:37 33.802917 -118.549268 170 8242ft 272kts
28-Oct-19 17:38 33.726258 -118.528635 169 11350ft 304kts
28-Oct-19 17:39 33.675004 -118.445561 110 14337ft 342kts
28-Oct-19 17:40 33.644887 -118.332949 92 16969ft 375kts
28-Oct-19 17:41 33.644703 -118.198388 90 17685ft 412kts
28-Oct-19 17:42 33.644660 -118.061326 90 21365ft 403kts
28-Oct-19 17:43 33.644479 -117.931596 90 22993ft 384kts
28-Oct-19 17:44 33.643063 -117.796753 100 24227ft 411kts
28-Oct-19 17:45 33.614064 -117.672883 106 27886ft 372kts
28-Oct-19 17:46 33.584677 -117.553847 106 30004ft 369kts
28-Oct-19 17:47 33.555131 -117.434736 106 31575ft 375kts
28-Oct-19 17:48 33.525104 -117.314234 107 33079ft 379kts
28-Oct-19 17:49 33.504572 -117.190831 91 34604ft 377kts
28-Oct-19 17:50 33.502676 -117.066416 91 36064ft 369kts
28-Oct-19 17:51 33.500937 -116.944815 91 36994ft 371kts
28-Oct-19 17:52 33.499114 -116.824784 91 37000ft 387kts
28-Oct-19 17:53 33.496978 -116.692840 91 37002ft 405kts
28-Oct-19 17:53 33.494996 -116.577838 91 37002ft 420kts
28-Oct-19 17:55 33.492010 -116.410514 90 37003ft 441kts
28-Oct-19 17:56 33.489786 -116.260632 91 36998ft 459kts
28-Oct-19 17:56 33.487726 -116.131302 91 36999ft 472kts
28-Oct-19 17:57 33.503622 -115.975134 70 36998ft 483kts
28-Oct-19 17:59 33.555581 -115.796642 70 36996ft 492kts
28-Oct-19 17:59 33.589776 -115.679030 70 36995ft 496kts
28-Oct-19 18:00 33.623002 -115.530268 88 37043ft 515kts
28-Oct-19 18:01 33.617838 -115.355980 90 37034ft 529kts
28-Oct-19 18:02 33.611630 -115.177939 91 37041ft 537kts
28-Oct-19 18:03 33.605121 -114.998230 91 37044ft 543kts
28-Oct-19 18:04 33.598222 -114.815879 91 37048ft 550kts
28-Oct-19 18:05 33.584733 -114.632656 95 37051ft 553kts
28-Oct-19 18:06 33.568276 -114.449362 95 37053ft 555kts
28-Oct-19 18:07 33.553367 -114.285961 96 37066ft 551kts
28-Oct-19 18:08 33.535652 -114.094866 96 37036ft 547kts
28-Oct-19 18:09 33.518609 -113.913923 96 37030ft 542kts
28-Oct-19 18:10 33.501564 -113.735773 96 37028ft 534kts
28-Oct-19 18:11 33.484521 -113.560455 96 37004ft 526kts
28-Oct-19 18:12 33.467457 -113.387419 96 36997ft 520kts
28-Oct-19 18:13 33.417313 -113.231161 118 36985ft 510kts
28-Oct-19 18:14 33.357243 -113.079167 118 36987ft 505kts
28-Oct-19 18:15 33.296842 -112.926791 118 37000ft 506kts
28-Oct-19 18:16 33.236102 -112.774433 119 37001ft 510kts
28-Oct-19 18:17 33.174603 -112.620891 119 37000ft 514kts
28-Oct-19 18:18 33.112266 -112.465862 119 37001ft 522kts
28-Oct-19 18:19 33.055527 -112.325338 120 36990ft 527kts
28-Oct-19 18:20 32.991158 -112.166648 120 36995ft 527kts
28-Oct-19 18:21 32.927107 -112.009476 120 37005ft 526kts
28-Oct-19 18:22 32.872386 -111.847504 108 37013ft 532kts
28-Oct-19 18:23 32.834428 -111.677035 107 37013ft 532kts
28-Oct-19 18:24 32.796427 -111.507285 107 37015ft 532kts
28-Oct-19 18:25 32.758291 -111.338035 108 37014ft 532kts
28-Oct-19 18:26 32.719824 -111.168516 108 37007ft 530kts
28-Oct-19 18:27 32.681335 -110.999916 109 37008ft 530kts
28-Oct-19 18:28 32.642206 -110.829825 109 37012ft 531kts
28-Oct-19 18:29 32.602986 -110.660510 109 37024ft 533kts
28-Oct-19 18:30 32.563528 -110.491272 109 37027ft 534kts
28-Oct-19 18:31 32.523647 -110.321407 109 37003ft 535kts
28-Oct-19 18:32 32.483433 -110.151127 109 36983ft 535kts
28-Oct-19 18:33 32.443132 -109.981746 109 36980ft 535kts
28-Oct-19 18:34 32.402618 -109.812439 110 36984ft 534kts
28-Oct-19 18:35 32.361745 -109.642826 110 36984ft 535kts
28-Oct-19 18:36 32.320678 -109.473460 109 36989ft 535kts
28-Oct-19 18:37 32.279410 -109.304347 110 36986ft 536kts
28-Oct-19 18:38 32.256647 -109.129399 99 36996ft 540kts
28-Oct-19 18:39 32.239641 -108.951979 99 37018ft 541kts
28-Oct-19 18:40 32.222376 -108.774425 99 37055ft 542kts
28-Oct-19 18:41 32.204859 -108.597138 99 37068ft 543kts
28-Oct-19 18:42 32.187112 -108.419909 99 37071ft 545kts
28-Oct-19 18:43 32.169391 -108.245468 100 37057ft 545kts
28-Oct-19 18:44 32.151056 -108.067504 100 37020ft 545kts
28-Oct-19 18:45 32.132477 -107.889575 100 36999ft 546kts
28-Oct-19 18:46 32.113617 -107.711477 100 37002ft 546kts
28-Oct-19 18:47 32.094531 -107.533647 100 37004ft 547kts
28-Oct-19 18:48 32.075126 -107.355298 100 37023ft 547kts
28-Oct-19 18:49 32.055512 -107.177314 100 37020ft 546kts
28-Oct-19 18:50 32.035667 -106.999609 100 37023ft 545kts
28-Oct-19 18:51 32.015604 -106.822193 101 37020ft 546kts
28-Oct-19 18:52 31.995198 -106.644097 101 37021ft 548kts
28-Oct-19 18:53 31.974516 -106.465777 101 37011ft 550kts
28-Oct-19 18:54 31.953504 -106.286827 101 36964ft 551kts
28-Oct-19 18:55 31.949196 -106.105462 93 36966ft 553kts
28-Oct-19 18:56 31.946137 -105.924662 93 36969ft 553kts
28-Oct-19 18:57 31.942534 -105.743423 88 36995ft 548kts
28-Oct-19 18:58 31.939555 -105.571557 91 36963ft 504kts
28-Oct-19 18:59 31.936022 -105.409376 90 36969ft 489kts
28-Oct-19 19:00 31.932622 -105.249955 91 36999ft 483kts
28-Oct-19 19:01 31.929233 -105.092776 91 37034ft 479kts
28-Oct-19 19:02 31.925653 -104.935670 91 37035ft 478kts
28-Oct-19 19:03 31.921893 -104.779145 91 37035ft 478kts
28-Oct-19 19:04 31.917933 -104.622274 91 37036ft 477kts
28-Oct-19 19:05 31.913801 -104.466201 91 37036ft 477kts
28-Oct-19 19:06 31.909318 -104.309710 88 37028ft 479kts
28-Oct-19 19:07 31.905216 -104.150396 95 37029ft 495kts
28-Oct-19 19:08 31.899841 -103.985195 95 37039ft 518kts
28-Oct-19 19:09 31.894130 -103.811432 88 37056ft 534kts
28-Oct-19 19:10 31.888899 -103.642259 92 37019ft 500kts
28-Oct-19 19:11 31.883338 -103.482136 91 37024ft 485kts
28-Oct-19 19:12 31.877744 -103.324279 92 37024ft 478kts
28-Oct-19 19:13 31.884782 -103.169706 81 37027ft 471kts
28-Oct-19 19:14 31.904879 -103.018240 80 37026ft 467kts
28-Oct-19 19:15 31.924772 -102.867234 80 37042ft 464kts
28-Oct-19 19:16 31.944341 -102.717286 80 37077ft 462kts
28-Oct-19 19:17 31.963694 -102.567592 80 37082ft 462kts
28-Oct-19 19:18 31.982757 -102.417541 78 37076ft 463kts
28-Oct-19 19:19 32.002276 -102.266072 80 37061ft 469kts
28-Oct-19 19:20 32.021361 -102.112715 81 37093ft 478kts
28-Oct-19 19:21 32.040878 -101.955490 82 37112ft 488kts
28-Oct-19 19:22 32.060533 -101.795101 78 37140ft 495kts
28-Oct-19 19:23 32.080279 -101.634372 79 37139ft 492kts
28-Oct-19 19:24 32.099368 -101.475451 81 37135ft 485kts
28-Oct-19 19:25 32.118199 -101.317082 81 37136ft 483kts
28-Oct-19 19:26 32.136739 -101.159682 81 37136ft 482kts
28-Oct-19 19:27 32.155055 -101.002474 81 37138ft 482kts
28-Oct-19 19:28 32.173188 -100.845094 81 37157ft 487kts
28-Oct-19 19:29 32.189509 -100.701937 81 37165ft 492kts
28-Oct-19 19:30 32.207615 -100.541373 81 37164ft 495kts
28-Oct-19 19:31 32.225653 -100.379532 81 37164ft 496kts
28-Oct-19 19:32 32.243352 -100.217564 79 37148ft 499kts
28-Oct-19 19:33 32.261865 -100.051163 85 37145ft 522kts
28-Oct-19 19:34 32.279925 -99.876018 88 37142ft 543kts
28-Oct-19 19:35 32.289497 -99.696436 83 37160ft 538kts
28-Oct-19 19:36 32.298512 -99.526351 86 37141ft 505kts
28-Oct-19 19:37 32.306856 -99.361660 86 37144ft 499kts
28-Oct-19 19:38 32.314348 -99.210455 86 37145ft 497kts
28-Oct-19 19:39 32.322264 -99.046593 86 37145ft 497kts
28-Oct-19 19:40 32.330043 -98.882373 86 36140ft 503kts
28-Oct-19 19:41 32.337694 -98.717242 86 34427ft 498kts
28-Oct-19 19:42 32.345043 -98.554110 86 32713ft 494kts
28-Oct-19 19:43 32.352123 -98.392394 86 31296ft 488kts
28-Oct-19 19:44 32.358777 -98.233845 84 29673ft 499kts
28-Oct-19 19:45 32.365564 -98.066246 86 28414ft 512kts
28-Oct-19 19:46 32.372071 -97.899367 85 27466ft 494kts
28-Oct-19 19:47 32.378204 -97.744346 85 25660ft 446kts
28-Oct-19 19:49 32.385577 -97.607572 72 23087ft 413kts
28-Oct-19 19:50 32.468858 -97.524554 40 19931ft 395kts
28-Oct-19 19:51 32.548072 -97.436184 43 16385ft 382kts
28-Oct-19 19:52 32.623800 -97.349419 42 13433ft 372kts
28-Oct-19 19:53 32.695680 -97.266860 41 11540ft 373kts
28-Oct-19 19:54 32.769082 -97.182939 35 10502ft 352kts
28-Oct-19 19:55 32.860924 -97.166714 356 8772ft 341kts
28-Oct-19 19:56 32.951157 -97.175283 312 7007ft 287kts
28-Oct-19 19:57 32.926744 -97.233604 183 6037ft 253kts
28-Oct-19 19:58 32.853630 -97.222166 172 4880ft 272kts
28-Oct-19 19:59 32.787462 -97.191841 113 3682ft 260kts
28-Oct-19 20:00 32.760242 -97.117821 111 2508ft 238kts
28-Oct-19 20:01 32.762233 -97.049009 51 1957ft 168kts
28-Oct-19 20:02 32.794396 -97.025685 25 1980ft 119kts
28-Oct-19 20:03 32.827164 -97.012409 5 2010ft 136kts
28-Oct-19 20:04 32.860620 -97.021156 330 1114ft 130kts
28-Oct-19 20:05 32.892559 -97.026153 0 613ft 75kts
28-Oct-19 20:06 32.900518 -97.027630 328 613ft 10kts
28-Oct-19 20:06 32.904570 -97.027971 357 613ft 24kts
28-Oct-19 20:08 32.910047 -97.031292 269 613ft 21kts
28-Oct-19 20:09 32.911825 -97.036585 340 613ft 16kts
28-Oct-19 20:09 32.912795 -97.036073 88 613ft 0kts

Navigation Log

Ident Type
Flight plan parsing failed, navigation log unavailable